Friday, January 19, 2018, 10:34 PM EST
Back to Local

KBWI, Baltimore-washington International

Location: Glen Burnie, MD, United States Lat: 39.167
Local Time: 10:34 PM EST ( 3:34 GMT) Lon: -76.683
Time Zone: US/Eastern Elev: 147 ft

Show me the last for .
Show Decoded

2018-01-19 21:54 METAR KBWI 200254Z 00000KT 10SM CLR M01/M07 A3003 RMK AO2 SLP171 T10111072 58000
                 =
2018-01-19 20:54 METAR KBWI 200154Z 00000KT 10SM CLR M02/M07 A3003 RMK AO2 SLP172 T10171072 =
2018-01-19 19:54 METAR KBWI 200054Z 00000KT 10SM CLR 01/M07 A3004 RMK AO2 SLP173 T00061072 =
2018-01-19 18:54 METAR KBWI 192354Z 00000KT 10SM FEW250 03/M08 A3003 RMK AO2 SLP171 T00281078
                 10111 20028 53002 =
2018-01-19 17:54 METAR KBWI 192254Z 16004KT 10SM FEW160 FEW250 06/M08 A3003 RMK AO2 SLP169
                 T00561083 =
2018-01-19 16:54 METAR KBWI 192154Z COR 19004KT 10SM FEW160 FEW250 09/M11 A3002 RMK AO2 SLP168
                 T00941106 =
2018-01-19 15:54 METAR KBWI 192054Z 27005KT 10SM FEW160 SCT250 11/M11 A3003 RMK AO2 SLP169
                 T01061106 55009 =
2018-01-19 14:54 METAR KBWI 191954Z 20007KT 10SM FEW160 FEW250 10/M10 A3003 RMK AO2 SLP169
                 T01001100 =
2018-01-19 13:54 METAR KBWI 191854Z 25009KT 10SM FEW160 FEW250 10/M10 A3004 RMK AO2 SLP172
                 T01001100 =
2018-01-19 12:54 METAR KBWI 191754Z 24009KT 10SM FEW160 FEW250 09/M09 A3005 RMK AO2 SLP178
                 T00941094 10094 21067 58026 =
2018-01-19 11:54 METAR KBWI 191654Z 28014G21KT 10SM FEW160 SCT250 08/M09 A3009 RMK AO2 SLP189
                 T00781094 =
2018-01-19 10:54 METAR KBWI 191554Z 28011KT 10SM FEW090 SCT160 BKN250 06/M09 A3013 RMK AO2 SLP204
                 T00611094 =
2018-01-19 09:54 METAR KBWI 191454Z 27006KT 10SM FEW090 SCT160 BKN250 04/M10 A3013 RMK AO2 SLP205
                 T00441100 53007 =
2018-01-19 08:54 METAR KBWI 191354Z 00000KT 10SM FEW120 SCT160 SCT250 01/M07 A3012 RMK AO2 SLP201
                 T00061067 =
2018-01-19 07:54 METAR KBWI 191254Z 00000KT 10SM SCT120 SCT160 SCT250 M06/M09 A3012 RMK AO2
                 SLP201 T10561094 =
2018-01-19 06:54 METAR KBWI 191154Z 00000KT 10SM FEW160 SCT250 M06/M10 A3011 RMK AO2 SLP198
                 T10611100 11022 21067 53010 =
2018-01-19 05:54 METAR KBWI 191054Z 00000KT 10SM FEW250 M06/M10 A3010 RMK AO2 SLP193 T10561100 =
2018-01-19 04:54 METAR KBWI 190954Z 00000KT 10SM CLR M05/M10 A3009 RMK AO2 SLP190 T10501100 =
2018-01-19 03:54 METAR KBWI 190854Z 23003KT 10SM CLR M04/M11 A3008 RMK AO2 SLP188 T10391106 57006
                 =
2018-01-19 02:54 METAR KBWI 190754Z 00000KT 10SM FEW250 M04/M11 A3009 RMK AO2 SLP190 T10441106 =
2018-01-19 01:54 METAR KBWI 190654Z 23003KT 10SM FEW250 M04/M12 A3009 RMK AO2 SLP191 T10391117 =
2018-01-19 00:54 METAR KBWI 190554Z 22004KT 10SM CLR M02/M12 A3010 RMK AO2 SLP194 T10221122 10022
                 21033 58003 =
2018-01-18 23:54 METAR KBWI 190454Z 23003KT 10SM CLR M01/M13 A3011 RMK AO2 SLP198 T10111133
                 400561117 =
2018-01-18 22:54 METAR KBWI 190354Z 27004KT 10SM CLR M01/M12 A3011 RMK AO2 SLP199 T10061122 =

Support USWX by starting your Amazon purchase here.